sensor_id;sensor_type;location;lat;lon;timestamp;pressure;altitude;pressure_sealevel;temperature;humidity
75759;BME280;64371;47.566;19.086;2023-03-09T00:01:51;98757.41;;;10.37;65.16
75759;BME280;64371;47.566;19.086;2023-03-09T00:04:57;98765.31;;;10.37;65.19
75759;BME280;64371;47.566;19.086;2023-03-09T00:08:02;98767.78;;;10.42;65.07
75759;BME280;64371;47.566;19.086;2023-03-09T00:11:26;98771.19;;;10.42;65.55
75759;BME280;64371;47.566;19.086;2023-03-09T00:14:39;98765.31;;;10.37;65.93
75759;BME280;64371;47.566;19.086;2023-03-09T00:17:48;98773.31;;;10.49;65.07
75759;BME280;64371;47.566;19.086;2023-03-09T00:20:57;98774.72;;;10.46;64.84
75759;BME280;64371;47.566;19.086;2023-03-09T00:24:11;98772.59;;;10.40;65.64
75759;BME280;64371;47.566;19.086;2023-03-09T00:27:16;98770.06;;;10.52;65.47
75759;BME280;64371;47.566;19.086;2023-03-09T00:30:20;98764.84;;;10.43;66.03
75759;BME280;64371;47.566;19.086;2023-03-09T00:33:28;98769.09;;;10.56;64.67
75759;BME280;64371;47.566;19.086;2023-03-09T00:36:34;98771.34;;;10.46;65.24
75759;BME280;64371;47.566;19.086;2023-03-09T00:39:44;98773.03;;;10.42;65.44
75759;BME280;64371;47.566;19.086;2023-03-09T00:42:48;98754.78;;;10.37;65.93
75759;BME280;64371;47.566;19.086;2023-03-09T00:45:52;98762.81;;;10.40;65.25
75759;BME280;64371;47.566;19.086;2023-03-09T00:48:57;98751.00;;;10.55;64.88
75759;BME280;64371;47.566;19.086;2023-03-09T00:52:04;98748.63;;;10.62;64.55
75759;BME280;64371;47.566;19.086;2023-03-09T00:55:10;98736.09;;;10.59;64.35
75759;BME280;64371;47.566;19.086;2023-03-09T00:58:18;98734.78;;;10.74;64.38
75759;BME280;64371;47.566;19.086;2023-03-09T01:01:29;98743.09;;;10.55;64.79
75759;BME280;64371;47.566;19.086;2023-03-09T01:04:33;98734.06;;;10.64;64.59
75759;BME280;64371;47.566;19.086;2023-03-09T01:07:36;98735.47;;;10.62;64.81
75759;BME280;64371;47.566;19.086;2023-03-09T01:10:39;98736.53;;;10.61;64.60
75759;BME280;64371;47.566;19.086;2023-03-09T01:13:47;98741.19;;;10.64;65.03
75759;BME280;64371;47.566;19.086;2023-03-09T01:16:51;98732.75;;;10.71;64.25
75759;BME280;64371;47.566;19.086;2023-03-09T01:19:58;98727.38;;;10.67;64.29
75759;BME280;64371;47.566;19.086;2023-03-09T01:23:03;98719.91;;;10.69;64.36
75759;BME280;64371;47.566;19.086;2023-03-09T01:26:10;98705.94;;;10.77;64.09
75759;BME280;64371;47.566;19.086;2023-03-09T01:29:15;98707.69;;;10.64;64.34
75759;BME280;64371;47.566;19.086;2023-03-09T01:32:29;98687.94;;;10.50;64.57
75759;BME280;64371;47.566;19.086;2023-03-09T01:35:57;98679.53;;;10.56;64.00
75759;BME280;64371;47.566;19.086;2023-03-09T01:39:02;98698.94;;;10.52;65.07
75759;BME280;64371;47.566;19.086;2023-03-09T01:42:05;98703.03;;;10.41;65.52
75759;BME280;64371;47.566;19.086;2023-03-09T01:48:43;98687.13;;;10.20;66.14
75759;BME280;64371;47.566;19.086;2023-03-09T01:55:06;98673.84;;;10.17;66.02
75759;BME280;64371;47.566;19.086;2023-03-09T01:58:17;98676.94;;;10.19;66.30
75759;BME280;64371;47.566;19.086;2023-03-09T02:01:22;98672.16;;;10.12;66.00
75759;BME280;64371;47.566;19.086;2023-03-09T02:04:41;98659.25;;;10.11;66.42
75759;BME280;64371;47.566;19.086;2023-03-09T02:07:51;98646.94;;;9.94;66.78
75759;BME280;64371;47.566;19.086;2023-03-09T02:11:06;98644.25;;;9.73;68.21
75759;BME280;64371;47.566;19.086;2023-03-09T02:14:14;98650.97;;;9.91;67.63
75759;BME280;64371;47.566;19.086;2023-03-09T02:17:22;98649.91;;;9.84;67.82
75759;BME280;64371;47.566;19.086;2023-03-09T02:27:00;98643.53;;;9.93;66.96
75759;BME280;64371;47.566;19.086;2023-03-09T02:30:12;98633.16;;;9.97;67.52
75759;BME280;64371;47.566;19.086;2023-03-09T02:36:49;98629.97;;;9.83;67.90
75759;BME280;64371;47.566;19.086;2023-03-09T02:40:35;98638.19;;;9.73;68.31
75759;BME280;64371;47.566;19.086;2023-03-09T02:43:49;98629.72;;;9.59;68.88
75759;BME280;64371;47.566;19.086;2023-03-09T02:47:10;98626.06;;;9.34;70.32
75759;BME280;64371;47.566;19.086;2023-03-09T02:50:27;98645.13;;;9.05;71.32
75759;BME280;64371;47.566;19.086;2023-03-09T02:53:32;98648.19;;;8.73;72.91
75759;BME280;64371;47.566;19.086;2023-03-09T02:56:35;98641.06;;;8.65;73.58
75759;BME280;64371;47.566;19.086;2023-03-09T02:59:44;98646.47;;;8.68;72.98
75759;BME280;64371;47.566;19.086;2023-03-09T03:02:50;98634.72;;;8.57;73.48
75759;BME280;64371;47.566;19.086;2023-03-09T03:06:02;98649.69;;;8.48;73.68
75759;BME280;64371;47.566;19.086;2023-03-09T03:09:05;98653.41;;;8.47;74.14
75759;BME280;64371;47.566;19.086;2023-03-09T03:12:16;98653.88;;;8.49;73.78
75759;BME280;64371;47.566;19.086;2023-03-09T03:15:23;98647.41;;;8.64;73.68
75759;BME280;64371;47.566;19.086;2023-03-09T03:18:29;98658.22;;;8.71;73.22
75759;BME280;64371;47.566;19.086;2023-03-09T03:24:59;98646.03;;;8.66;73.25
75759;BME280;64371;47.566;19.086;2023-03-09T03:28:04;98626.81;;;8.57;73.77
75759;BME280;64371;47.566;19.086;2023-03-09T03:31:12;98641.53;;;8.67;73.56
75759;BME280;64371;47.566;19.086;2023-03-09T03:34:22;98643.56;;;8.79;72.86
75759;BME280;64371;47.566;19.086;2023-03-09T03:37:27;98645.56;;;8.82;73.13
75759;BME280;64371;47.566;19.086;2023-03-09T03:40:33;98642.63;;;8.83;73.02
75759;BME280;64371;47.566;19.086;2023-03-09T03:43:41;98650.03;;;8.90;72.43
75759;BME280;64371;47.566;19.086;2023-03-09T03:46:45;98642.63;;;8.92;72.11
75759;BME280;64371;47.566;19.086;2023-03-09T03:49:50;98644.63;;;9.12;71.57
75759;BME280;64371;47.566;19.086;2023-03-09T03:53:05;98648.06;;;9.12;71.77
75759;BME280;64371;47.566;19.086;2023-03-09T03:56:12;98646.50;;;9.03;71.81
75759;BME280;64371;47.566;19.086;2023-03-09T03:59:28;98628.56;;;8.96;72.24
75759;BME280;64371;47.566;19.086;2023-03-09T04:02:53;98636.63;;;8.91;72.52
75759;BME280;64371;47.566;19.086;2023-03-09T04:06:18;98640.78;;;9.01;72.11
75759;BME280;64371;47.566;19.086;2023-03-09T04:09:27;98646.97;;;9.05;72.03
75759;BME280;64371;47.566;19.086;2023-03-09T04:12:37;98640.31;;;9.07;72.21
75759;BME280;64371;47.566;19.086;2023-03-09T04:15:45;98649.28;;;8.98;72.42
75759;BME280;64371;47.566;19.086;2023-03-09T04:18:51;98634.00;;;8.91;72.65
75759;BME280;64371;47.566;19.086;2023-03-09T04:21:55;98625.78;;;8.84;72.63
75759;BME280;64371;47.566;19.086;2023-03-09T04:25:19;98631.34;;;8.83;73.01
75759;BME280;64371;47.566;19.086;2023-03-09T04:28:25;98622.38;;;8.75;72.58
75759;BME280;64371;47.566;19.086;2023-03-09T04:31:34;98621.44;;;8.80;72.60
75759;BME280;64371;47.566;19.086;2023-03-09T04:35:04;98619.28;;;8.82;72.86
75759;BME280;64371;47.566;19.086;2023-03-09T04:38:11;98630.09;;;8.72;73.47
75759;BME280;64371;47.566;19.086;2023-03-09T04:41:27;98614.34;;;8.72;73.77
75759;BME280;64371;47.566;19.086;2023-03-09T04:44:37;98603.84;;;8.72;73.32
75759;BME280;64371;47.566;19.086;2023-03-09T04:47:40;98584.22;;;8.69;73.58
75759;BME280;64371;47.566;19.086;2023-03-09T04:50:54;98597.66;;;8.76;73.23
75759;BME280;64371;47.566;19.086;2023-03-09T04:54:14;98603.03;;;8.62;73.88
75759;BME280;64371;47.566;19.086;2023-03-09T04:57:17;98595.16;;;8.54;74.10
75759;BME280;64371;47.566;19.086;2023-03-09T05:00:22;98591.75;;;8.53;73.92
75759;BME280;64371;47.566;19.086;2023-03-09T05:03:26;98604.56;;;8.46;74.39
75759;BME280;64371;47.566;19.086;2023-03-09T05:06:43;98604.25;;;8.48;74.59
75759;BME280;64371;47.566;19.086;2023-03-09T05:09:57;98597.44;;;8.38;74.91
75759;BME280;64371;47.566;19.086;2023-03-09T05:13:03;98600.41;;;8.54;74.04
75759;BME280;64371;47.566;19.086;2023-03-09T05:16:27;98596.25;;;8.61;74.17
75759;BME280;64371;47.566;19.086;2023-03-09T05:19:52;98612.03;;;8.79;72.92
75759;BME280;64371;47.566;19.086;2023-03-09T05:22:57;98604.00;;;8.66;73.50
75759;BME280;64371;47.566;19.086;2023-03-09T05:26:02;98607.72;;;8.74;73.43
75759;BME280;64371;47.566;19.086;2023-03-09T05:29:14;98601.81;;;8.68;73.50
75759;BME280;64371;47.566;19.086;2023-03-09T05:32:24;98611.09;;;8.75;73.06
75759;BME280;64371;47.566;19.086;2023-03-09T05:35:29;98623.44;;;8.65;73.25
75759;BME280;64371;47.566;19.086;2023-03-09T05:38:45;98608.00;;;8.73;73.39
75759;BME280;64371;47.566;19.086;2023-03-09T05:41:55;98612.78;;;8.71;73.91
75759;BME280;64371;47.566;19.086;2023-03-09T05:45:18;98617.25;;;8.70;73.21
75759;BME280;64371;47.566;19.086;2023-03-09T05:48:25;98618.81;;;8.80;73.42
75759;BME280;64371;47.566;19.086;2023-03-09T05:51:31;98600.59;;;8.83;72.89
75759;BME280;64371;47.566;19.086;2023-03-09T05:54:34;98589.00;;;8.76;73.24
75759;BME280;64371;47.566;19.086;2023-03-09T05:57:47;98612.78;;;8.96;72.08
75759;BME280;64371;47.566;19.086;2023-03-09T06:00:53;98603.53;;;8.90;72.76
75759;BME280;64371;47.566;19.086;2023-03-09T06:04:09;98603.22;;;8.92;73.18
75759;BME280;64371;47.566;19.086;2023-03-09T06:07:16;98598.72;;;8.75;73.62
75759;BME280;64371;47.566;19.086;2023-03-09T06:10:38;98593.63;;;8.87;73.24
75759;BME280;64371;47.566;19.086;2023-03-09T06:13:49;98609.88;;;8.98;73.23
75759;BME280;64371;47.566;19.086;2023-03-09T06:16:57;98613.72;;;9.09;72.49
75759;BME280;64371;47.566;19.086;2023-03-09T06:20:09;98616.63;;;9.16;72.04
75759;BME280;64371;47.566;19.086;2023-03-09T06:23:18;98626.69;;;9.14;72.17
75759;BME280;64371;47.566;19.086;2023-03-09T06:26:26;98631.34;;;9.17;72.43
75759;BME280;64371;47.566;19.086;2023-03-09T06:29:39;98632.91;;;9.18;72.62
75759;BME280;64371;47.566;19.086;2023-03-09T06:33:04;98639.84;;;9.31;72.41
75759;BME280;64371;47.566;19.086;2023-03-09T06:36:13;98631.94;;;9.31;71.57
75759;BME280;64371;47.566;19.086;2023-03-09T06:39:19;98624.50;;;9.42;71.22
75759;BME280;64371;47.566;19.086;2023-03-09T06:42:30;98639.84;;;9.40;71.12
75759;BME280;64371;47.566;19.086;2023-03-09T06:45:36;98634.25;;;9.41;71.84
75759;BME280;64371;47.566;19.086;2023-03-09T06:48:41;98647.94;;;9.72;70.69
75759;BME280;64371;47.566;19.086;2023-03-09T06:51:48;98651.88;;;10.04;68.80
75759;BME280;64371;47.566;19.086;2023-03-09T06:55:09;98648.47;;;10.12;69.05
75759;BME280;64371;47.566;19.086;2023-03-09T06:58:32;98632.75;;;10.24;68.53
75759;BME280;64371;47.566;19.086;2023-03-09T07:01:37;98634.47;;;10.49;67.21
75759;BME280;64371;47.566;19.086;2023-03-09T07:04:42;98637.38;;;10.56;66.68
75759;BME280;64371;47.566;19.086;2023-03-09T07:07:46;98641.50;;;10.66;67.04
75759;BME280;64371;47.566;19.086;2023-03-09T07:11:03;98632.25;;;10.81;65.61
75759;BME280;64371;47.566;19.086;2023-03-09T07:14:09;98637.75;;;10.88;65.84
75759;BME280;64371;47.566;19.086;2023-03-09T07:17:14;98628.44;;;10.90;66.05
75759;BME280;64371;47.566;19.086;2023-03-09T07:20:20;98639.47;;;10.92;65.50
75759;BME280;64371;47.566;19.086;2023-03-09T07:23:30;98655.34;;;11.04;66.01
75759;BME280;64371;47.566;19.086;2023-03-09T07:26:35;98659.19;;;11.07;65.69
75759;BME280;64371;47.566;19.086;2023-03-09T07:29:44;98666.44;;;11.10;65.90
75759;BME280;64371;47.566;19.086;2023-03-09T07:32:57;98667.72;;;11.24;65.06
75759;BME280;64371;47.566;19.086;2023-03-09T07:36:07;98686.44;;;11.31;65.29
75759;BME280;64371;47.566;19.086;2023-03-09T07:39:14;98690.19;;;11.30;65.26
75759;BME280;64371;47.566;19.086;2023-03-09T07:42:22;98683.69;;;11.28;65.58
75759;BME280;64371;47.566;19.086;2023-03-09T07:46:04;98660.78;;;11.41;64.42
75759;BME280;64371;47.566;19.086;2023-03-09T07:49:14;98674.84;;;11.45;64.47
75759;BME280;64371;47.566;19.086;2023-03-09T07:52:21;98673.88;;;11.49;64.25
75759;BME280;64371;47.566;19.086;2023-03-09T07:55:29;98669.47;;;11.53;64.27
75759;BME280;64371;47.566;19.086;2023-03-09T07:58:38;98663.34;;;11.61;63.61
75759;BME280;64371;47.566;19.086;2023-03-09T08:01:47;98656.00;;;11.67;64.21
75759;BME280;64371;47.566;19.086;2023-03-09T08:04:50;98657.59;;;11.80;63.58
75759;BME280;64371;47.566;19.086;2023-03-09T08:08:04;98644.66;;;11.66;64.17
75759;BME280;64371;47.566;19.086;2023-03-09T08:11:15;98683.78;;;11.85;63.80
75759;BME280;64371;47.566;19.086;2023-03-09T08:14:40;98689.63;;;11.90;63.30
75759;BME280;64371;47.566;19.086;2023-03-09T08:17:44;98692.50;;;11.97;63.19
75759;BME280;64371;47.566;19.086;2023-03-09T08:21:07;98706.81;;;12.09;63.21
75759;BME280;64371;47.566;19.086;2023-03-09T08:24:23;98709.16;;;12.10;62.88
75759;BME280;64371;47.566;19.086;2023-03-09T08:27:28;98720.38;;;12.07;62.88
75759;BME280;64371;47.566;19.086;2023-03-09T08:30:39;98718.50;;;12.20;62.81
75759;BME280;64371;47.566;19.086;2023-03-09T08:33:43;98717.41;;;12.21;62.55
75759;BME280;64371;47.566;19.086;2023-03-09T08:37:00;98715.88;;;12.32;62.47
75759;BME280;64371;47.566;19.086;2023-03-09T08:40:06;98695.19;;;12.46;61.88
75759;BME280;64371;47.566;19.086;2023-03-09T08:43:12;98686.25;;;12.75;61.49
75759;BME280;64371;47.566;19.086;2023-03-09T08:46:25;98703.41;;;12.93;61.13
75759;BME280;64371;47.566;19.086;2023-03-09T08:49:36;98709.69;;;13.00;61.05
75759;BME280;64371;47.566;19.086;2023-03-09T08:52:52;98720.81;;;13.06;60.62
75759;BME280;64371;47.566;19.086;2023-03-09T08:55:55;98717.94;;;12.99;60.72
75759;BME280;64371;47.566;19.086;2023-03-09T08:59:03;98691.72;;;13.06;60.40
75759;BME280;64371;47.566;19.086;2023-03-09T09:02:19;98703.94;;;13.10;60.41
75759;BME280;64371;47.566;19.086;2023-03-09T09:05:27;98701.28;;;13.10;60.83
75759;BME280;64371;47.566;19.086;2023-03-09T09:08:34;98708.25;;;13.03;61.30
75759;BME280;64371;47.566;19.086;2023-03-09T09:11:39;98704.41;;;13.12;61.08
75759;BME280;64371;47.566;19.086;2023-03-09T09:14:42;98720.66;;;13.26;60.50
75759;BME280;64371;47.566;19.086;2023-03-09T09:17:51;98713.59;;;13.30;60.40
75759;BME280;64371;47.566;19.086;2023-03-09T09:21:08;98716.97;;;13.43;59.98
75759;BME280;64371;47.566;19.086;2023-03-09T09:24:19;98728.59;;;13.82;58.96
75759;BME280;64371;47.566;19.086;2023-03-09T09:27:26;98734.31;;;14.12;57.96
75759;BME280;64371;47.566;19.086;2023-03-09T09:30:30;98730.53;;;14.75;56.36
75759;BME280;64371;47.566;19.086;2023-03-09T09:33:47;98725.00;;;14.99;55.27
75759;BME280;64371;47.566;19.086;2023-03-09T09:36:54;98716.03;;;15.23;54.82
75759;BME280;64371;47.566;19.086;2023-03-09T09:40:02;98721.66;;;15.02;55.19
75759;BME280;64371;47.566;19.086;2023-03-09T09:43:05;98725.31;;;14.79;56.13
75759;BME280;64371;47.566;19.086;2023-03-09T09:46:19;98742.34;;;15.12;54.53
75759;BME280;64371;47.566;19.086;2023-03-09T09:49:24;98741.31;;;15.93;52.58
75759;BME280;64371;47.566;19.086;2023-03-09T09:59:05;98726.44;;;16.12;52.45
75759;BME280;64371;47.566;19.086;2023-03-09T10:02:39;98728.44;;;16.18;51.62
75759;BME280;64371;47.566;19.086;2023-03-09T10:05:54;98745.53;;;16.17;52.18
75759;BME280;64371;47.566;19.086;2023-03-09T10:09:03;98753.47;;;15.94;53.00
75759;BME280;64371;47.566;19.086;2023-03-09T10:12:14;98737.44;;;16.55;51.17
75759;BME280;64371;47.566;19.086;2023-03-09T10:15:33;98754.16;;;17.05;49.67
75759;BME280;64371;47.566;19.086;2023-03-09T10:19:17;98745.69;;;16.73;50.27
75759;BME280;64371;47.566;19.086;2023-03-09T10:22:32;98750.44;;;16.38;51.25
75759;BME280;64371;47.566;19.086;2023-03-09T10:25:36;98750.72;;;16.33;51.79
75759;BME280;64371;47.566;19.086;2023-03-09T10:28:43;98752.81;;;16.01;52.54
75759;BME280;64371;47.566;19.086;2023-03-09T10:31:57;98756.56;;;16.19;52.06
75759;BME280;64371;47.566;19.086;2023-03-09T10:35:20;98753.28;;;16.48;51.50
75759;BME280;64371;47.566;19.086;2023-03-09T10:38:45;98760.69;;;16.58;50.84
75759;BME280;64371;47.566;19.086;2023-03-09T10:41:57;98761.94;;;16.45;51.54
75759;BME280;64371;47.566;19.086;2023-03-09T10:48:26;98762.13;;;16.79;50.03
75759;BME280;64371;47.566;19.086;2023-03-09T10:51:38;98773.16;;;17.33;48.72
75759;BME280;64371;47.566;19.086;2023-03-09T10:54:44;98762.22;;;17.12;48.70
75759;BME280;64371;47.566;19.086;2023-03-09T10:57:57;98771.97;;;17.31;48.39
75759;BME280;64371;47.566;19.086;2023-03-09T11:01:05;98781.28;;;17.44;48.53
75759;BME280;64371;47.566;19.086;2023-03-09T11:07:31;98763.03;;;17.16;48.59
75759;BME280;64371;47.566;19.086;2023-03-09T11:10:37;98768.63;;;17.07;48.66
75759;BME280;64371;47.566;19.086;2023-03-09T11:13:45;98762.31;;;17.19;48.34
75759;BME280;64371;47.566;19.086;2023-03-09T11:17:03;98755.44;;;17.18;48.12
75759;BME280;64371;47.566;19.086;2023-03-09T11:26:36;98753.81;;;16.84;48.94
75759;BME280;64371;47.566;19.086;2023-03-09T11:33:04;98764.63;;;16.68;49.34
75759;BME280;64371;47.566;19.086;2023-03-09T11:36:26;98779.53;;;16.73;49.27
75759;BME280;64371;47.566;19.086;2023-03-09T11:39:50;98790.22;;;16.76;49.30
75759;BME280;64371;47.566;19.086;2023-03-09T11:43:20;98785.16;;;16.94;48.95
75759;BME280;64371;47.566;19.086;2023-03-09T11:46:34;98787.31;;;16.85;48.49
75759;BME280;64371;47.566;19.086;2023-03-09T11:49:51;98786.91;;;16.83;47.56
75759;BME280;64371;47.566;19.086;2023-03-09T11:56:28;98802.41;;;17.03;46.17
75759;BME280;64371;47.566;19.086;2023-03-09T12:03:07;98810.91;;;17.68;44.55
75759;BME280;64371;47.566;19.086;2023-03-09T12:13:30;98826.03;;;17.05;46.56
75759;BME280;64371;47.566;19.086;2023-03-09T12:16:58;98822.03;;;17.18;46.33
75759;BME280;64371;47.566;19.086;2023-03-09T12:20:19;98826.78;;;17.05;45.69
75759;BME280;64371;47.566;19.086;2023-03-09T12:23:47;98828.84;;;17.15;45.05
75759;BME280;64371;47.566;19.086;2023-03-09T12:27:16;98830.00;;;17.18;45.07
75759;BME280;64371;47.566;19.086;2023-03-09T12:30:51;98840.38;;;17.23;44.96
75759;BME280;64371;47.566;19.086;2023-03-09T12:40:39;98847.13;;;17.17;44.65
75759;BME280;64371;47.566;19.086;2023-03-09T12:43:47;98840.66;;;17.44;43.22
75759;BME280;64371;47.566;19.086;2023-03-09T12:47:00;98868.03;;;17.41;42.83
75759;BME280;64371;47.566;19.086;2023-03-09T12:54:07;98866.28;;;17.26;41.42
75759;BME280;64371;47.566;19.086;2023-03-09T12:57:33;98871.22;;;17.24;41.17
75759;BME280;64371;47.566;19.086;2023-03-09T13:04:26;98870.63;;;16.89;40.83
75759;BME280;64371;47.566;19.086;2023-03-09T13:07:33;98867.63;;;16.90;40.99
75759;BME280;64371;47.566;19.086;2023-03-09T13:10:41;98868.94;;;16.77;41.18
75759;BME280;64371;47.566;19.086;2023-03-09T13:14:03;98872.44;;;16.58;41.74
75759;BME280;64371;47.566;19.086;2023-03-09T13:20:46;98885.25;;;16.53;42.26
75759;BME280;64371;47.566;19.086;2023-03-09T13:23:51;98886.34;;;16.52;42.35
75759;BME280;64371;47.566;19.086;2023-03-09T13:27:10;98874.47;;;16.27;42.62
75759;BME280;64371;47.566;19.086;2023-03-09T13:30:36;98900.41;;;16.33;42.96
75759;BME280;64371;47.566;19.086;2023-03-09T13:33:46;98899.72;;;16.36;42.88
75759;BME280;64371;47.566;19.086;2023-03-09T13:37:00;98904.75;;;16.61;42.62
75759;BME280;64371;47.566;19.086;2023-03-09T13:43:28;98916.75;;;16.32;43.16
75759;BME280;64371;47.566;19.086;2023-03-09T13:46:35;98922.13;;;16.35;43.62
75759;BME280;64371;47.566;19.086;2023-03-09T13:49:47;98914.88;;;16.51;42.65
75759;BME280;64371;47.566;19.086;2023-03-09T13:53:05;98916.50;;;16.40;42.31
75759;BME280;64371;47.566;19.086;2023-03-09T13:56:14;98917.00;;;16.46;43.06
75759;BME280;64371;47.566;19.086;2023-03-09T13:59:27;98918.63;;;16.31;41.90
75759;BME280;64371;47.566;19.086;2023-03-09T14:02:39;98942.16;;;16.29;41.68
75759;BME280;64371;47.566;19.086;2023-03-09T14:05:53;98932.84;;;16.20;41.29
75759;BME280;64371;47.566;19.086;2023-03-09T14:09:35;98953.69;;;16.18;41.61
75759;BME280;64371;47.566;19.086;2023-03-09T14:12:43;98955.91;;;16.16;40.97
75759;BME280;64371;47.566;19.086;2023-03-09T14:19:04;98954.66;;;16.10;41.21
75759;BME280;64371;47.566;19.086;2023-03-09T14:22:29;98964.56;;;15.93;41.19
75759;BME280;64371;47.566;19.086;2023-03-09T14:25:36;98957.63;;;15.89;41.12
75759;BME280;64371;47.566;19.086;2023-03-09T14:32:54;98957.47;;;15.82;41.05
75759;BME280;64371;47.566;19.086;2023-03-09T14:36:19;98949.91;;;16.19;40.44
75759;BME280;64371;47.566;19.086;2023-03-09T14:39:35;98955.03;;;16.27;40.11
75759;BME280;64371;47.566;19.086;2023-03-09T14:42:45;98953.06;;;16.43;40.04
75759;BME280;64371;47.566;19.086;2023-03-09T14:46:07;98934.72;;;16.38;39.56
75759;BME280;64371;47.566;19.086;2023-03-09T14:49:14;98939.63;;;16.36;40.10
75759;BME280;64371;47.566;19.086;2023-03-09T14:52:29;98942.69;;;16.19;40.43
75759;BME280;64371;47.566;19.086;2023-03-09T14:55:35;98926.78;;;16.04;40.87
75759;BME280;64371;47.566;19.086;2023-03-09T14:58:40;98926.50;;;15.89;41.01
75759;BME280;64371;47.566;19.086;2023-03-09T15:01:57;98928.97;;;15.79;40.58
75759;BME280;64371;47.566;19.086;2023-03-09T15:05:12;98926.28;;;15.79;39.93
75759;BME280;64371;47.566;19.086;2023-03-09T15:08:20;98921.31;;;15.77;39.33
75759;BME280;64371;47.566;19.086;2023-03-09T15:11:26;98935.63;;;15.73;40.17
75759;BME280;64371;47.566;19.086;2023-03-09T15:14:44;98937.81;;;15.86;39.89
75759;BME280;64371;47.566;19.086;2023-03-09T15:17:50;98947.91;;;15.97;40.03
75759;BME280;64371;47.566;19.086;2023-03-09T15:21:05;98950.13;;;16.10;38.71
75759;BME280;64371;47.566;19.086;2023-03-09T15:24:10;98944.38;;;16.08;38.04
75759;BME280;64371;47.566;19.086;2023-03-09T15:27:20;98927.69;;;15.92;38.39
75759;BME280;64371;47.566;19.086;2023-03-09T15:30:30;98940.00;;;15.81;38.53
75759;BME280;64371;47.566;19.086;2023-03-09T15:33:41;98956.66;;;15.62;38.87
75759;BME280;64371;47.566;19.086;2023-03-09T15:36:55;98955.03;;;15.42;39.52
75759;BME280;64371;47.566;19.086;2023-03-09T15:39:57;98956.75;;;15.35;39.12
75759;BME280;64371;47.566;19.086;2023-03-09T15:43:02;98967.44;;;15.38;39.07
75759;BME280;64371;47.566;19.086;2023-03-09T15:46:08;98961.69;;;15.36;38.97
75759;BME280;64371;47.566;19.086;2023-03-09T15:49:15;98965.81;;;15.18;39.90
75759;BME280;64371;47.566;19.086;2023-03-09T15:52:20;98970.34;;;15.17;39.63
75759;BME280;64371;47.566;19.086;2023-03-09T15:55:29;98979.59;;;15.08;40.09
75759;BME280;64371;47.566;19.086;2023-03-09T15:58:41;98983.53;;;14.98;40.77
75759;BME280;64371;47.566;19.086;2023-03-09T16:01:46;98994.28;;;14.90;40.69
75759;BME280;64371;47.566;19.086;2023-03-09T16:04:55;98997.22;;;14.85;40.70
75759;BME280;64371;47.566;19.086;2023-03-09T16:08:07;98995.66;;;14.84;40.93
75759;BME280;64371;47.566;19.086;2023-03-09T16:11:22;99007.03;;;14.84;40.88
75759;BME280;64371;47.566;19.086;2023-03-09T16:14:27;99008.13;;;14.68;41.23
75759;BME280;64371;47.566;19.086;2023-03-09T16:17:31;99021.84;;;14.57;41.92
75759;BME280;64371;47.566;19.086;2023-03-09T16:20:37;99028.06;;;14.49;42.15
75759;BME280;64371;47.566;19.086;2023-03-09T16:23:51;99028.22;;;14.29;42.73
75759;BME280;64371;47.566;19.086;2023-03-09T16:26:58;99033.50;;;14.29;42.84
75759;BME280;64371;47.566;19.086;2023-03-09T16:30:06;99042.03;;;13.98;43.67
75759;BME280;64371;47.566;19.086;2023-03-09T16:33:12;99045.44;;;14.11;43.17
75759;BME280;64371;47.566;19.086;2023-03-09T16:36:18;99050.75;;;13.86;44.04
75759;BME280;64371;47.566;19.086;2023-03-09T16:39:26;99056.72;;;13.71;44.77
75759;BME280;64371;47.566;19.086;2023-03-09T16:42:29;99067.84;;;13.53;45.24
75759;BME280;64371;47.566;19.086;2023-03-09T16:45:53;99072.81;;;13.54;45.42
75759;BME280;64371;47.566;19.086;2023-03-09T16:49:02;99072.03;;;13.42;45.93
75759;BME280;64371;47.566;19.086;2023-03-09T16:52:12;99074.53;;;13.38;46.19
75759;BME280;64371;47.566;19.086;2023-03-09T16:55:19;99082.81;;;13.37;46.35
75759;BME280;64371;47.566;19.086;2023-03-09T16:58:27;99079.66;;;13.22;46.84
75759;BME280;64371;47.566;19.086;2023-03-09T17:01:43;99089.78;;;13.08;47.60
75759;BME280;64371;47.566;19.086;2023-03-09T17:04:45;99088.84;;;12.84;48.11
75759;BME280;64371;47.566;19.086;2023-03-09T17:07:52;99088.09;;;12.83;48.39
75759;BME280;64371;47.566;19.086;2023-03-09T17:11:02;99099.19;;;12.77;48.83
75759;BME280;64371;47.566;19.086;2023-03-09T17:14:17;99117.06;;;12.59;49.52
75759;BME280;64371;47.566;19.086;2023-03-09T17:17:21;99127.56;;;12.47;49.96
75759;BME280;64371;47.566;19.086;2023-03-09T17:20:34;99130.75;;;12.32;50.71
75759;BME280;64371;47.566;19.086;2023-03-09T17:23:46;99138.06;;;12.26;50.37
75759;BME280;64371;47.566;19.086;2023-03-09T17:26:53;99134.06;;;12.20;50.79
75759;BME280;64371;47.566;19.086;2023-03-09T17:29:59;99141.94;;;12.29;50.78
75759;BME280;64371;47.566;19.086;2023-03-09T17:33:03;99147.09;;;11.96;51.49
75759;BME280;64371;47.566;19.086;2023-03-09T17:36:09;99150.69;;;11.91;52.31
75759;BME280;64371;47.566;19.086;2023-03-09T17:39:18;99147.44;;;11.86;52.23
75759;BME280;64371;47.566;19.086;2023-03-09T17:42:23;99158.56;;;12.00;51.70
75759;BME280;64371;47.566;19.086;2023-03-09T17:45:35;99159.84;;;11.94;51.83
75759;BME280;64371;47.566;19.086;2023-03-09T17:48:40;99153.63;;;11.90;52.24
75759;BME280;64371;47.566;19.086;2023-03-09T17:51:47;99164.69;;;11.75;52.71
75759;BME280;64371;47.566;19.086;2023-03-09T17:54:50;99154.63;;;11.60;52.85
75759;BME280;64371;47.566;19.086;2023-03-09T17:57:52;99156.63;;;11.54;53.34
75759;BME280;64371;47.566;19.086;2023-03-09T18:00:55;99149.81;;;11.45;53.50
75759;BME280;64371;47.566;19.086;2023-03-09T18:04:10;99160.69;;;11.34;53.51
75759;BME280;64371;47.566;19.086;2023-03-09T18:07:13;99170.16;;;11.27;54.58